createdAt,value
2022-08-05T00:02:07.577Z,4.50
2022-08-05T00:04:40.286Z,4.40
2022-08-05T00:07:27.039Z,4.03
2022-08-05T00:10:05.265Z,4.07
2022-08-05T00:12:55.637Z,3.80
2022-08-05T00:15:55.457Z,3.80
2022-08-05T00:18:27.272Z,4.47
2022-08-05T00:21:01.075Z,3.77
2022-08-05T00:23:45.863Z,4.30
2022-08-05T00:26:26.079Z,4.20
2022-08-05T00:28:58.067Z,3.73
2022-08-05T00:31:54.131Z,4.33
2022-08-05T00:34:55.795Z,4.10
2022-08-05T00:37:15.485Z,4.33
2022-08-05T00:39:58.682Z,3.93
2022-08-05T00:42:36.707Z,4.60
2022-08-05T00:45:11.629Z,4.40
2022-08-05T00:47:56.234Z,4.40
2022-08-05T00:50:29.774Z,4.17
2022-08-05T00:53:01.735Z,3.67
2022-08-05T00:55:43.659Z,4.07
2022-08-05T00:58:16.944Z,3.50
2022-08-05T01:00:51.418Z,3.27
2022-08-05T01:03:24.366Z,3.47
2022-08-05T01:06:03.858Z,3.33
2022-08-05T01:08:42.985Z,3.33
2022-08-05T01:11:21.744Z,3.03
2022-08-05T01:14:35.131Z,3.30
2022-08-05T01:17:22.870Z,4.07
2022-08-05T01:20:35.224Z,3.20
2022-08-05T01:23:57.925Z,3.40
2022-08-05T01:27:17.627Z,2.90
2022-08-05T01:30:17.684Z,3.27
2022-08-05T01:32:52.765Z,3.30
2022-08-05T01:35:53.108Z,2.93
2022-08-05T01:38:29.235Z,3.30
2022-08-05T01:41:05.705Z,3.90
2022-08-05T01:43:39.933Z,3.20
2022-08-05T01:46:16.290Z,3.20
2022-08-05T01:48:51.659Z,3.67
2022-08-05T01:51:26.774Z,3.20
2022-08-05T01:54:08.225Z,3.17
2022-08-05T01:58:10.035Z,3.70
2022-08-05T01:59:41.439Z,3.67
2022-08-05T02:02:26.213Z,3.23
2022-08-05T02:05:11.672Z,3.27
2022-08-05T02:07:56.298Z,3.60
2022-08-05T02:10:39.544Z,2.90
2022-08-05T02:13:53.439Z,3.50
2022-08-05T02:16:56.176Z,3.47
2022-08-05T02:19:47.134Z,3.60
2022-08-05T02:22:31.617Z,3.87
2022-08-05T02:25:22.852Z,2.97
2022-08-05T02:28:08.894Z,3.20
2022-08-05T02:30:56.514Z,3.23
2022-08-05T02:33:57.790Z,3.77
2022-08-05T02:36:36.491Z,3.40
2022-08-05T02:39:15.954Z,3.60
2022-08-05T02:42:00.593Z,3.10
2022-08-05T02:44:36.525Z,3.20
2022-08-05T02:47:13.005Z,3.90
2022-08-05T02:49:49.126Z,3.27
2022-08-05T02:52:29.728Z,3.53
2022-08-05T02:55:10.633Z,3.27
2022-08-05T02:58:12.050Z,3.57
2022-08-05T03:00:49.477Z,3.77
2022-08-05T03:03:24.224Z,3.87
2022-08-05T03:06:56.095Z,3.50
2022-08-05T03:08:52.432Z,4.10
2022-08-05T03:11:55.826Z,3.00
2022-08-05T03:14:18.850Z,3.63
2022-08-05T03:16:53.355Z,3.87
2022-08-05T03:19:34.610Z,3.70
2022-08-05T03:22:16.007Z,3.87
2022-08-05T03:24:52.230Z,3.63
2022-08-05T03:27:29.783Z,3.30
2022-08-05T03:30:18.099Z,3.47
2022-08-05T03:33:06.167Z,4.30
2022-08-05T03:35:41.031Z,3.83
2022-08-05T03:38:17.431Z,4.00
2022-08-05T03:41:10.800Z,3.43
2022-08-05T03:44:09.024Z,5.10
2022-08-05T03:46:35.927Z,3.83
2022-08-05T03:49:08.372Z,4.10
2022-08-05T03:52:36.907Z,3.73
2022-08-05T03:55:51.172Z,2.93
2022-08-05T03:57:53.416Z,4.33
2022-08-05T04:00:31.276Z,4.60
2022-08-05T04:03:05.986Z,4.47
2022-08-05T04:05:40.194Z,4.20
2022-08-05T04:08:30.157Z,4.10
2022-08-05T04:11:08.720Z,4.20
2022-08-05T04:13:49.799Z,3.77
2022-08-05T04:16:25.494Z,5.03
2022-08-05T04:19:11.891Z,4.33
2022-08-05T04:22:08.320Z,4.30
2022-08-05T04:24:52.496Z,4.03
2022-08-05T04:27:33.235Z,3.90
2022-08-05T04:30:15.689Z,3.80
2022-08-05T04:32:47.976Z,4.33
2022-08-05T04:35:20.222Z,4.13
2022-08-05T04:38:02.695Z,4.00
2022-08-05T04:40:44.442Z,4.40
2022-08-05T04:43:22.031Z,3.90
2022-08-05T04:45:55.761Z,5.03
2022-08-05T04:48:28.578Z,5.47
2022-08-05T04:51:03.137Z,4.67
2022-08-05T04:53:38.679Z,4.60
2022-08-05T04:56:14.379Z,4.60
2022-08-05T04:58:47.671Z,4.67
2022-08-05T05:02:06.043Z,4.50
2022-08-05T05:04:11.945Z,4.70
2022-08-05T05:06:49.139Z,4.67
2022-08-05T05:09:25.069Z,5.43
2022-08-05T05:12:01.724Z,5.00
2022-08-05T05:14:36.224Z,4.60
2022-08-05T05:17:09.662Z,4.70
2022-08-05T05:19:44.432Z,4.60
2022-08-05T05:22:23.406Z,4.50
2022-08-05T05:25:00.357Z,5.50
2022-08-05T05:27:41.423Z,5.20
2022-08-05T05:30:31.378Z,4.93
2022-08-05T05:33:15.918Z,5.10
2022-08-05T05:35:59.922Z,5.70
2022-08-05T05:38:32.046Z,5.60
2022-08-05T05:41:04.415Z,5.97
2022-08-05T05:43:57.619Z,5.37
2022-08-05T05:46:31.185Z,5.33
2022-08-05T05:49:06.494Z,5.53
2022-08-05T05:51:55.484Z,5.60
2022-08-05T05:54:51.036Z,5.70
2022-08-05T05:57:20.286Z,5.60
2022-08-05T05:59:52.878Z,5.90
2022-08-05T06:02:32.539Z,5.27
2022-08-05T06:05:16.508Z,5.40
2022-08-05T06:07:57.525Z,4.83
2022-08-05T06:10:34.509Z,5.13
2022-08-05T06:13:09.543Z,5.10
2022-08-05T06:16:29.706Z,5.10
2022-08-05T06:18:39.427Z,4.60
2022-08-05T06:21:18.604Z,4.90
2022-08-05T06:23:50.945Z,4.17
2022-08-05T06:26:24.059Z,4.07
2022-08-05T06:28:57.432Z,3.80
2022-08-05T06:31:30.600Z,4.43
2022-08-05T06:34:08.899Z,4.23
2022-08-05T06:36:57.679Z,4.00
2022-08-05T06:39:31.268Z,3.47
2022-08-05T06:42:04.024Z,4.10
2022-08-05T06:44:36.755Z,3.87
2022-08-05T06:47:30.247Z,3.83
2022-08-05T06:50:05.150Z,3.50
2022-08-05T06:52:40.460Z,3.33
2022-08-05T06:55:12.621Z,3.47
2022-08-05T06:58:03.524Z,3.50
2022-08-05T07:00:41.131Z,3.30
2022-08-05T07:03:13.314Z,3.80
2022-08-05T07:05:48.746Z,3.50
2022-08-05T07:08:28.855Z,3.80
2022-08-05T07:11:01.948Z,4.30
2022-08-05T07:13:59.302Z,3.40
2022-08-05T07:17:59.723Z,3.10
2022-08-05T07:22:36.599Z,3.60
2022-08-05T07:25:53.955Z,3.00
2022-08-05T07:28:05.847Z,3.93
2022-08-05T07:30:41.939Z,3.23
2022-08-05T07:33:16.075Z,3.43
2022-08-05T07:36:03.518Z,3.10
2022-08-05T07:38:43.491Z,2.87
2022-08-05T07:42:13.507Z,2.77
2022-08-05T07:44:18.734Z,2.60
2022-08-05T07:46:51.622Z,2.50
2022-08-05T07:49:23.643Z,2.63
2022-08-05T07:51:55.717Z,2.50
2022-08-05T07:54:30.582Z,2.37
2022-08-05T07:57:17.890Z,2.60
2022-08-05T07:59:58.839Z,2.27
2022-08-05T08:03:13.708Z,2.10
2022-08-05T08:05:23.273Z,2.40
2022-08-05T08:08:00.100Z,2.23
2022-08-05T08:10:33.235Z,2.20
2022-08-05T08:13:06.762Z,2.50
2022-08-05T08:16:50.339Z,2.30
2022-08-05T08:18:35.968Z,3.07
2022-08-05T08:21:15.999Z,2.60
2022-08-05T08:24:02.841Z,1.90
2022-08-05T08:26:37.013Z,2.20
2022-08-05T08:29:21.924Z,2.30
2022-08-05T08:32:05.680Z,2.10
2022-08-05T08:34:43.994Z,2.23
2022-08-05T08:37:18.734Z,2.40
2022-08-05T08:39:51.104Z,2.33
2022-08-05T08:42:33.779Z,2.37
2022-08-05T08:45:23.662Z,2.20
2022-08-05T08:48:22.272Z,2.20
2022-08-05T08:51:22.299Z,2.13
2022-08-05T08:53:54.200Z,2.20
2022-08-05T08:56:27.318Z,2.20
2022-08-05T08:59:01.255Z,2.37
2022-08-05T09:01:43.044Z,1.90
2022-08-05T09:04:30.335Z,2.30
2022-08-05T09:07:19.329Z,2.10
2022-08-05T09:09:51.588Z,2.23
2022-08-05T09:12:27.293Z,2.57
2022-08-05T09:15:05.753Z,2.30
2022-08-05T09:17:42.733Z,1.93
2022-08-05T09:20:36.424Z,2.33
2022-08-05T09:23:19.636Z,2.23
2022-08-05T09:26:06.673Z,2.07
2022-08-05T09:28:48.017Z,2.30
2022-08-05T09:31:43.339Z,1.93
2022-08-05T09:34:14.875Z,2.13
2022-08-05T09:36:54.968Z,2.20
2022-08-05T09:39:45.300Z,2.07
2022-08-05T09:42:24.237Z,2.10
2022-08-05T09:46:04.611Z,2.30
2022-08-05T09:48:37.032Z,2.07
2022-08-05T09:51:14.807Z,1.93
2022-08-05T09:53:54.575Z,1.83
2022-08-05T09:56:52.342Z,1.90
2022-08-05T09:59:27.732Z,2.47
2022-08-05T10:02:01.166Z,2.00
2022-08-05T10:04:39.697Z,2.20
2022-08-05T10:07:20.467Z,2.27
2022-08-05T10:10:32.567Z,2.00
2022-08-05T10:13:10.197Z,2.30
2022-08-05T10:15:43.892Z,2.27
2022-08-05T10:18:20.305Z,2.20
2022-08-05T10:20:56.820Z,1.90
2022-08-05T10:23:59.672Z,2.10
2022-08-05T10:26:32.700Z,2.20
2022-08-05T10:29:08.131Z,2.30
2022-08-05T10:32:51.964Z,2.27
2022-08-05T10:34:35.075Z,2.03
2022-08-05T10:37:13.665Z,3.30
2022-08-05T10:40:03.729Z,3.00
2022-08-05T10:42:53.171Z,2.90
2022-08-05T10:45:41.871Z,2.70
2022-08-05T10:48:53.011Z,2.30
2022-08-05T10:51:53.039Z,2.93
2022-08-05T10:55:04.720Z,2.50
2022-08-05T10:57:41.342Z,2.40
2022-08-05T11:00:23.033Z,2.13
2022-08-05T11:03:24.811Z,1.90
2022-08-05T11:06:15.407Z,2.10
2022-08-05T11:09:39.349Z,1.97
2022-08-05T11:12:45.206Z,2.40
2022-08-05T11:16:01.278Z,2.30
2022-08-05T11:18:47.101Z,2.50
2022-08-05T11:21:40.919Z,2.03
2022-08-05T11:24:30.120Z,2.10
2022-08-05T11:27:50.908Z,1.93
2022-08-05T11:30:24.138Z,2.20
2022-08-05T11:33:44.045Z,2.07
2022-08-05T11:36:47.252Z,2.50
2022-08-05T11:40:00.688Z,2.20
2022-08-05T11:42:40.718Z,2.33
2022-08-05T11:46:15.428Z,2.03
2022-08-05T11:48:25.844Z,2.13
2022-08-05T11:50:58.422Z,2.00
2022-08-05T11:53:40.966Z,2.20
2022-08-05T11:56:15.236Z,7.53
2022-08-05T11:58:52.898Z,2.33
2022-08-05T12:01:25.329Z,2.30
2022-08-05T12:03:57.514Z,2.23
2022-08-05T12:06:35.897Z,2.17
2022-08-05T12:09:08.066Z,2.10
2022-08-05T12:11:56.580Z,2.47
2022-08-05T12:14:39.463Z,2.50
2022-08-05T12:18:02.738Z,2.37
2022-08-05T12:20:16.627Z,2.30
2022-08-05T12:23:11.974Z,2.67
2022-08-05T12:25:56.609Z,2.13
2022-08-05T12:28:37.698Z,2.20
2022-08-05T12:31:10.649Z,2.23
2022-08-05T12:33:57.287Z,2.80
2022-08-05T12:36:32.941Z,2.40
2022-08-05T12:39:06.912Z,2.80
2022-08-05T12:41:43.601Z,2.57
2022-08-05T12:44:28.547Z,2.37
2022-08-05T12:47:12.572Z,2.37
2022-08-05T12:50:03.753Z,2.40
2022-08-05T12:53:00.220Z,2.30
2022-08-05T12:55:32.911Z,2.60
2022-08-05T12:58:48.355Z,2.47
2022-08-05T13:02:00.626Z,2.33
2022-08-05T13:03:55.374Z,2.70
2022-08-05T13:06:29.924Z,2.73
2022-08-05T13:09:13.646Z,3.07
2022-08-05T13:12:01.952Z,2.17
2022-08-05T13:14:42.266Z,2.50
2022-08-05T13:17:20.459Z,2.70
2022-08-05T13:20:20.318Z,2.47
2022-08-05T13:23:07.156Z,2.40
2022-08-05T13:25:52.790Z,2.43
2022-08-05T13:28:32.764Z,2.67
2022-08-05T13:31:11.208Z,2.90
2022-08-05T13:34:21.465Z,2.30
2022-08-05T13:36:39.004Z,2.60
2022-08-05T13:40:14.514Z,2.10
2022-08-05T13:42:06.057Z,2.40
2022-08-05T13:44:43.274Z,2.43
2022-08-05T13:47:35.029Z,2.47
2022-08-05T13:50:11.426Z,3.10
2022-08-05T13:52:46.900Z,2.60
2022-08-05T13:55:41.795Z,2.43
2022-08-05T13:58:14.281Z,2.70
2022-08-05T14:01:03.429Z,2.80
2022-08-05T14:03:36.326Z,2.30
2022-08-05T14:06:25.637Z,2.60
2022-08-05T14:08:59.524Z,2.47
2022-08-05T14:11:32.369Z,2.20
2022-08-05T14:14:26.068Z,4.50
2022-08-05T14:17:05.395Z,8.70
2022-08-05T14:19:55.943Z,3.40
2022-08-05T14:22:34.520Z,5.13
2022-08-05T14:25:21.698Z,2.90
2022-08-05T14:27:56.249Z,2.63
2022-08-05T14:30:30.571Z,3.10
2022-08-05T14:33:04.612Z,2.70
2022-08-05T14:35:50.556Z,2.30
2022-08-05T14:38:31.687Z,2.30
2022-08-05T14:41:07.632Z,2.63
2022-08-05T14:44:00.122Z,4.00
2022-08-05T14:46:32.569Z,2.80
2022-08-05T14:49:08.396Z,2.90
2022-08-05T14:51:42.943Z,2.90
2022-08-05T14:54:28.386Z,3.00
2022-08-05T14:57:05.253Z,3.50
2022-08-05T14:59:41.873Z,3.43
2022-08-05T15:02:15.125Z,5.03
2022-08-05T15:04:56.282Z,4.03
2022-08-05T15:08:12.076Z,3.77
2022-08-05T15:10:20.726Z,3.97
2022-08-05T15:13:03.636Z,3.83
2022-08-05T15:15:54.910Z,3.83
2022-08-05T15:18:28.466Z,4.07
2022-08-05T15:21:07.395Z,3.90
2022-08-05T15:23:40.190Z,3.40
2022-08-05T15:26:12.397Z,3.20
2022-08-05T15:28:46.325Z,3.43
2022-08-05T15:31:24.065Z,4.23
2022-08-05T15:34:31.715Z,3.13
2022-08-05T15:37:00.518Z,3.83
2022-08-05T15:41:01.807Z,3.27
2022-08-05T15:42:56.218Z,4.50
2022-08-05T15:45:38.018Z,3.77
2022-08-05T15:48:15.135Z,3.30
2022-08-05T15:50:47.930Z,3.80
2022-08-05T15:53:20.074Z,2.93
2022-08-05T15:56:02.090Z,3.80
2022-08-05T15:58:46.380Z,3.77
2022-08-05T16:01:19.439Z,3.67
2022-08-05T16:03:52.798Z,3.43
2022-08-05T16:06:24.871Z,3.60
2022-08-05T16:08:57.019Z,4.63
2022-08-05T16:11:42.728Z,3.87
2022-08-05T16:14:17.449Z,4.23
2022-08-05T16:16:51.097Z,3.60
2022-08-05T16:20:03.131Z,4.30
2022-08-05T16:22:15.641Z,3.60
2022-08-05T16:24:51.575Z,4.13
2022-08-05T16:27:32.104Z,3.17
2022-08-05T16:30:25.652Z,3.20
2022-08-05T16:32:59.583Z,6.37
2022-08-05T16:35:34.654Z,5.57
2022-08-05T16:38:18.662Z,3.00
2022-08-05T16:41:01.396Z,3.50
2022-08-05T16:43:35.387Z,3.30
2022-08-05T16:46:12.952Z,3.10
2022-08-05T16:48:57.179Z,3.27
2022-08-05T16:51:31.051Z,3.50
2022-08-05T16:54:25.719Z,3.40
2022-08-05T16:57:01.467Z,3.40
2022-08-05T16:59:34.480Z,3.50
2022-08-05T17:02:27.818Z,3.07
2022-08-05T17:05:00.550Z,3.00
2022-08-05T17:07:39.230Z,3.60
2022-08-05T17:10:15.908Z,3.30
2022-08-05T17:12:51.502Z,3.30
2022-08-05T17:15:29.492Z,3.33
2022-08-05T17:18:18.998Z,3.63
2022-08-05T17:20:51.212Z,3.33
2022-08-05T17:24:04.328Z,3.40
2022-08-05T17:26:15.483Z,3.20
2022-08-05T17:28:47.550Z,3.13
2022-08-05T17:31:24.512Z,3.23
2022-08-05T17:34:17.749Z,3.30
2022-08-05T17:36:50.138Z,3.50
2022-08-05T17:39:24.438Z,3.20
2022-08-05T17:42:28.495Z,3.60
2022-08-05T17:45:09.823Z,3.90
2022-08-05T17:47:55.696Z,3.70
2022-08-05T17:50:30.358Z,3.70
2022-08-05T17:53:05.425Z,4.20
2022-08-05T17:55:40.003Z,4.30
2022-08-05T17:58:14.593Z,5.00
2022-08-05T18:00:50.556Z,4.93
2022-08-05T18:03:59.596Z,5.60
2022-08-05T18:06:15.736Z,5.53
2022-08-05T18:08:52.369Z,5.87
2022-08-05T18:11:29.695Z,6.50
2022-08-05T18:14:20.570Z,6.77
2022-08-05T18:16:52.953Z,6.20
2022-08-05T18:19:26.002Z,5.73
2022-08-05T18:22:07.383Z,5.60
2022-08-05T18:24:41.990Z,5.93
2022-08-05T18:27:18.741Z,6.30
2022-08-05T18:29:54.523Z,5.90
2022-08-05T18:32:28.084Z,6.83
2022-08-05T18:35:01.768Z,6.30
2022-08-05T18:37:40.363Z,6.97
2022-08-05T18:41:50.840Z,7.83
2022-08-05T18:43:09.021Z,7.17
2022-08-05T18:45:48.913Z,7.80
2022-08-05T18:48:31.485Z,7.60
2022-08-05T18:52:02.789Z,8.83
2022-08-05T18:54:36.141Z,8.70
2022-08-05T18:57:15.531Z,8.90
2022-08-05T19:00:01.844Z,10.27
2022-08-05T19:02:38.205Z,9.60
2022-08-05T19:06:06.117Z,10.17
2022-08-05T19:08:13.533Z,8.73
2022-08-05T19:10:47.491Z,9.57
2022-08-05T19:13:20.492Z,9.47
2022-08-05T19:15:59.983Z,9.70
2022-08-05T19:18:36.812Z,10.07
2022-08-05T19:21:12.292Z,8.43
2022-08-05T19:24:06.101Z,9.20
2022-08-05T19:26:54.517Z,8.87
2022-08-05T19:29:36.485Z,7.90
2022-08-05T19:32:11.733Z,8.63
2022-08-05T19:34:55.332Z,7.47
2022-08-05T19:37:34.902Z,8.30
2022-08-05T19:40:24.256Z,8.70
2022-08-05T19:43:05.580Z,8.77
2022-08-05T19:45:39.884Z,9.10
2022-08-05T19:48:27.134Z,8.17
2022-08-05T19:50:59.273Z,7.87
2022-08-05T19:54:04.142Z,8.00
2022-08-05T19:56:32.679Z,8.20
2022-08-05T19:59:53.747Z,7.50
2022-08-05T20:02:03.394Z,7.73
2022-08-05T20:04:35.947Z,7.63
2022-08-05T20:07:13.030Z,8.60
2022-08-05T20:09:53.595Z,9.50
2022-08-05T20:12:26.502Z,8.90
2022-08-05T20:14:58.944Z,8.77
2022-08-05T20:17:32.463Z,9.17
2022-08-05T20:20:10.976Z,9.60
2022-08-05T20:22:44.150Z,9.33
2022-08-05T20:25:19.191Z,8.50
2022-08-05T20:27:55.426Z,9.97
2022-08-05T20:30:30.293Z,9.20
2022-08-05T20:33:03.033Z,9.00
2022-08-05T20:35:40.273Z,9.37
2022-08-05T20:38:22.703Z,9.60
2022-08-05T20:41:00.441Z,8.90
2022-08-05T20:43:59.988Z,10.10
2022-08-05T20:46:29.563Z,10.17
2022-08-05T20:49:02.691Z,10.00
2022-08-05T20:51:38.498Z,8.97
2022-08-05T20:54:13.897Z,9.10
2022-08-05T20:56:46.583Z,8.50
2022-08-05T20:59:26.708Z,7.70
2022-08-05T21:02:13.546Z,8.50
2022-08-05T21:04:50.272Z,8.23
2022-08-05T21:07:23.921Z,9.10
2022-08-05T21:09:57.856Z,8.63
2022-08-05T21:12:30.235Z,8.40
2022-08-05T21:15:02.482Z,8.47
2022-08-05T21:17:34.760Z,7.80
2022-08-05T21:20:10.191Z,8.37
2022-08-05T21:22:43.096Z,7.83
2022-08-05T21:25:15.316Z,8.53
2022-08-05T21:27:47.794Z,8.10
2022-08-05T21:30:25.739Z,7.80
2022-08-05T21:32:58.208Z,8.30
2022-08-05T21:35:55.827Z,8.60
2022-08-05T21:38:23.315Z,7.83
2022-08-05T21:40:57.220Z,7.87
2022-08-05T21:43:41.587Z,8.37
2022-08-05T21:46:14.081Z,7.77
2022-08-05T21:48:46.525Z,7.73
2022-08-05T21:52:15.485Z,8.33
2022-08-05T21:54:11.859Z,8.23
2022-08-05T21:56:51.386Z,6.80
2022-08-05T21:59:30.476Z,4.77
2022-08-05T22:02:14.678Z,4.57
2022-08-05T22:04:46.905Z,3.67
2022-08-05T22:07:39.408Z,3.37
2022-08-05T22:10:15.757Z,3.50
2022-08-05T22:12:50.581Z,3.23
2022-08-05T22:16:04.631Z,2.97
2022-08-05T22:18:15.587Z,2.93
2022-08-05T22:20:52.428Z,2.67
2022-08-05T22:24:00.831Z,2.77
2022-08-05T22:27:16.611Z,2.80
2022-08-05T22:30:17.155Z,2.43
2022-08-05T22:32:49.287Z,2.30
2022-08-05T22:35:21.399Z,2.30
2022-08-05T22:37:59.279Z,2.20
2022-08-05T22:40:32.070Z,2.80
2022-08-05T22:43:05.332Z,2.50
2022-08-05T22:45:37.520Z,2.67
2022-08-05T22:48:10.855Z,2.40
2022-08-05T22:50:46.143Z,2.30
2022-08-05T22:53:35.816Z,2.00
2022-08-05T22:56:09.823Z,2.13
2022-08-05T22:58:43.772Z,2.00
2022-08-05T23:01:16.573Z,1.90
2022-08-05T23:03:58.021Z,2.10
2022-08-05T23:06:31.745Z,2.53
2022-08-05T23:09:26.770Z,2.90
2022-08-05T23:11:56.665Z,2.37
2022-08-05T23:14:32.363Z,2.23
2022-08-05T23:17:24.264Z,2.03
2022-08-05T23:20:17.550Z,1.83
2022-08-05T23:22:50.115Z,2.50
2022-08-05T23:25:52.052Z,2.50
2022-08-05T23:28:20.644Z,2.10
2022-08-05T23:30:55.509Z,2.63
2022-08-05T23:34:04.396Z,1.97
2022-08-05T23:36:21.453Z,1.97
2022-08-05T23:39:00.861Z,2.57
2022-08-05T23:41:34.189Z,2.30
2022-08-05T23:44:09.793Z,2.53
2022-08-05T23:46:41.950Z,2.10
2022-08-05T23:49:15.962Z,2.40
2022-08-05T23:52:12.906Z,2.47
2022-08-05T23:55:09.058Z,2.20
2022-08-05T23:57:41.289Z,2.10
